Time;durP1;ratioP1;P1;durP2;ratioP2;P2;SDS_P1;SDS_P2;PMS_P1;PMS_P2;Temp;Humidity;BMP_temperature;BMP_pressure;BME280_temperature;BME280_humidity;BME280_pressure;Samples;Min_cycle;Max_cycle;Signal;HPM_P1;HPM_P2
2023/12/02 00:01:04;;;;;;;145.68;14.20;;;;;;;3.52;89.62;97456.91;4507118;31;33217;-87
2023/12/02 00:03:31;;;;;;;334.50;46.00;;;;;;;3.75;88.36;97467.44;4504604;31;33609;-87
2023/12/02 00:05:59;;;;;;;109.82;30.23;;;;;;;3.45;89.49;97468.81;4504154;31;32953;-87
2023/12/02 00:08:26;;;;;;;406.42;48.40;;;;;;;3.79;88.22;97466.66;4499996;31;33439;-89
2023/12/02 00:10:54;;;;;;;130.18;13.55;;;;;;;3.91;87.80;97454.00;4506622;31;33791;-88
2023/12/02 00:13:22;;;;;;;197.00;15.13;;;;;;;3.97;88.06;97463.44;4502645;31;34799;-89
2023/12/02 00:15:49;;;;;;;499.27;61.65;;;;;;;3.73;88.93;97451.22;4507768;31;34884;-88
2023/12/02 00:18:17;;;;;;;116.97;13.75;;;;;;;3.61;88.75;97451.91;4509791;31;33571;-92
2023/12/02 00:20:44;;;;;;;185.15;18.33;;;;;;;3.76;88.94;97466.62;4507846;31;33785;-91
2023/12/02 00:23:12;;;;;;;134.57;15.30;;;;;;;3.67;90.22;97462.22;4506046;31;34868;-89
2023/12/02 00:25:40;;;;;;;135.45;14.52;;;;;;;3.61;89.33;97467.28;4508381;31;33653;-93
2023/12/02 00:28:07;;;;;;;178.80;15.20;;;;;;;3.76;88.98;97464.94;4503271;31;34192;-92
2023/12/02 00:30:34;;;;;;;461.20;55.25;;;;;;;3.51;89.81;97462.87;4498229;31;33383;-86
2023/12/02 00:33:02;;;;;;;76.32;13.02;;;;;;;3.36;90.79;97455.84;4502587;31;34675;-88
2023/12/02 00:35:30;;;;;;;124.65;14.13;;;;;;;3.80;88.68;97473.50;4513001;31;33929;-88
2023/12/02 00:37:58;;;;;;;505.87;59.65;;;;;;;4.11;87.38;97459.34;4512122;31;34364;-86
2023/12/02 00:40:25;;;;;;;474.00;56.55;;;;;;;3.89;87.94;97443.69;4500528;31;33769;-89
2023/12/02 00:42:53;;;;;;;127.25;15.43;;;;;;;3.55;90.16;97442.44;4514162;31;33806;-89
2023/12/02 00:45:20;;;;;;;445.75;59.78;;;;;;;3.67;89.71;97446.84;4510119;31;33842;-87
2023/12/02 00:47:48;;;;;;;486.70;61.80;;;;;;;3.89;88.39;97460.78;4509914;31;33215;-87
2023/12/02 00:50:16;;;;;;;90.87;14.13;;;;;;;3.88;88.45;97470.19;4513231;31;33382;-87
2023/12/02 00:52:43;;;;;;;240.60;16.62;;;;;;;4.17;86.69;97453.41;4512826;31;34953;-86
2023/12/02 00:55:11;;;;;;;490.33;60.50;;;;;;;3.71;88.17;97451.16;4505521;31;33560;-89
2023/12/02 00:57:38;;;;;;;471.58;56.45;;;;;;;3.94;87.55;97436.09;4507358;31;32969;-90
2023/12/02 01:00:06;;;;;;;503.60;58.10;;;;;;;4.24;85.99;97460.31;4498840;31;34624;-87
2023/12/02 01:02:34;;;;;;;159.18;16.55;;;;;;;4.20;85.83;97464.53;4498793;31;33682;-88
2023/12/02 01:05:02;;;;;;;366.42;52.75;;;;;;;4.06;86.66;97461.00;4498580;31;33825;-87
2023/12/02 01:07:31;;;;;;;614.42;72.05;;;;;;;4.02;86.68;97449.84;4496478;31;33092;-86
2023/12/02 01:09:59;;;;;;;486.75;55.80;;;;;;;4.38;85.56;97439.09;4483123;31;33958;-90
2023/12/02 01:12:26;;;;;;;202.02;18.48;;;;;;;3.89;87.55;97443.69;4484631;31;34210;-87
2023/12/02 01:14:54;;;;;;;351.73;52.97;;;;;;;3.80;88.91;97438.47;4499819;31;34441;-85
2023/12/02 01:17:21;;;;;;;468.08;57.05;;;;;;;4.09;86.86;97443.06;4501161;31;34619;-85
2023/12/02 01:19:49;;;;;;;178.27;14.40;;;;;;;4.18;86.73;97440.59;4490408;31;33547;-88
2023/12/02 01:22:16;;;;;;;471.85;56.42;;;;;;;3.78;88.87;97422.22;4502934;31;33723;-87
2023/12/02 01:24:44;;;;;;;576.00;64.93;;;;;;;3.85;88.36;97426.56;4501457;31;34662;-88
2023/12/02 01:27:11;;;;;;;160.25;34.45;;;;;;;4.30;86.90;97440.72;4506399;31;34344;-88
2023/12/02 01:29:39;;;;;;;468.40;55.25;;;;;;;4.53;84.92;97432.37;4505748;31;34621;-89
2023/12/02 01:32:07;;;;;;;483.33;55.90;;;;;;;4.63;84.66;97441.88;4514390;31;33313;-88
2023/12/02 01:34:34;;;;;;;571.50;66.60;;;;;;;4.27;86.55;97434.69;4511512;31;34242;-91
2023/12/02 01:37:02;;;;;;;209.43;15.40;;;;;;;3.87;88.81;97421.47;4515069;31;34296;-91
2023/12/02 01:39:29;;;;;;;244.15;18.08;;;;;;;4.08;87.92;97418.25;4504163;31;33385;-86
2023/12/02 01:41:57;;;;;;;253.10;23.60;;;;;;;3.89;88.54;97420.62;4486057;31;34195;-88
2023/12/02 01:44:24;;;;;;;251.88;21.52;;;;;;;3.79;89.80;97416.28;4499448;31;34483;-87
2023/12/02 01:46:52;;;;;;;470.70;57.35;;;;;;;4.22;87.75;97421.84;4489374;31;33341;-87
2023/12/02 01:49:21;;;;;;;579.38;60.22;;;;;;;4.21;86.96;97424.41;4507836;31;33519;-87
2023/12/02 01:51:48;;;;;;;216.98;37.75;;;;;;;4.16;87.32;97419.19;4491344;31;33957;-89
2023/12/02 01:54:17;;;;;;;510.50;55.17;;;;;;;4.21;87.26;97426.97;4514298;31;33555;-89
2023/12/02 01:56:46;;;;;;;462.40;51.05;;;;;;;3.75;90.14;97422.22;4502206;31;31956;-86
2023/12/02 01:59:18;;;;;;;221.37;17.73;;;;;;;3.84;89.34;97417.16;4500104;31;34651;-90
2023/12/02 02:01:46;;;;;;;522.17;60.08;;;;;;;3.78;90.56;97409.41;4485273;31;33880;-88
2023/12/02 02:04:13;;;;;;;451.67;55.72;;;;;;;3.85;89.34;97400.94;4502654;31;33722;-88
2023/12/02 02:06:41;;;;;;;275.10;41.42;;;;;;;3.81;90.27;97413.72;4509973;31;33802;-91
2023/12/02 02:09:08;;;;;;;206.50;16.50;;;;;;;3.89;89.53;97404.41;4507569;31;33795;-90
2023/12/02 02:11:36;;;;;;;557.78;58.47;;;;;;;4.10;89.48;97390.94;4500920;31;33859;-92
2023/12/02 02:14:04;;;;;;;554.45;63.90;;;;;;;3.99;89.34;97384.84;4514131;31;35096;-88
2023/12/02 02:16:31;;;;;;;473.48;55.78;;;;;;;3.79;90.13;97384.63;4506927;31;33485;-91
2023/12/02 02:18:59;;;;;;;434.60;50.95;;;;;;;3.59;91.92;97349.37;4508811;31;34821;-90
2023/12/02 02:21:27;;;;;;;235.00;20.45;;;;;;;3.97;89.77;97368.59;4515357;31;34839;-90
2023/12/02 02:23:54;;;;;;;507.40;58.03;;;;;;;3.52;92.14;97380.06;4504872;31;33630;-89
2023/12/02 02:26:22;;;;;;;250.05;37.83;;;;;;;3.61;91.66;97381.03;4507665;31;33452;-91
2023/12/02 02:28:50;;;;;;;75.53;10.57;;;;;;;3.90;89.62;97373.66;4510372;31;33476;-90
2023/12/02 02:31:17;;;;;;;498.62;58.85;;;;;;;4.02;89.14;97387.44;4515433;31;34099;-88
2023/12/02 02:33:45;;;;;;;357.02;46.42;;;;;;;4.20;88.22;97372.22;4488347;31;32880;-87
2023/12/02 02:36:12;;;;;;;558.58;60.35;;;;;;;4.06;88.00;97379.81;4503021;31;34214;-91
2023/12/02 02:38:40;;;;;;;577.55;66.47;;;;;;;3.75;90.26;97370.06;4493438;31;34594;-91
2023/12/02 02:41:08;;;;;;;398.00;49.78;;;;;;;3.99;90.28;97354.09;4504047;31;33060;-90
2023/12/02 02:43:35;;;;;;;561.15;63.33;;;;;;;4.09;88.74;97371.25;4500017;31;32867;-90
2023/12/02 02:46:03;;;;;;;434.42;49.13;;;;;;;4.29;88.06;97371.47;4508427;31;33460;-87
2023/12/02 02:48:30;;;;;;;230.82;17.58;;;;;;;4.34;87.04;97369.78;4500745;31;33617;-92
2023/12/02 02:50:58;;;;;;;574.97;59.55;;;;;;;4.30;87.81;97363.75;4511286;31;33768;-89
2023/12/02 02:53:25;;;;;;;498.92;56.10;;;;;;;4.11;88.33;97369.56;4512321;31;34064;-91
2023/12/02 02:55:53;;;;;;;156.50;15.02;;;;;;;4.20;88.00;97379.91;4509161;31;33758;-87
2023/12/02 02:58:21;;;;;;;646.58;65.65;;;;;;;4.13;87.90;97373.03;4510063;31;34607;-89
2023/12/02 03:00:48;;;;;;;543.87;61.13;;;;;;;4.13;88.30;97380.72;4502410;31;34079;-90
2023/12/02 03:03:16;;;;;;;455.75;51.67;;;;;;;3.92;89.62;97360.00;4506930;31;33495;-88
2023/12/02 03:05:44;;;;;;;170.38;16.58;;;;;;;3.92;89.19;97357.44;4488194;31;33402;-90
2023/12/02 03:08:11;;;;;;;459.48;53.78;;;;;;;4.49;87.83;97358.78;4512044;31;33707;-91
2023/12/02 03:10:39;;;;;;;489.87;54.78;;;;;;;4.49;86.98;97358.78;4499029;31;34886;-91
2023/12/02 03:13:06;;;;;;;400.52;47.40;;;;;;;4.60;86.14;97347.75;4503817;31;33899;-91
2023/12/02 03:15:34;;;;;;;477.20;52.90;;;;;;;4.31;87.50;97350.09;4500552;31;34207;-91
2023/12/02 03:18:02;;;;;;;473.33;52.58;;;;;;;4.16;88.38;97355.09;4505739;31;33622;-89
2023/12/02 03:20:30;;;;;;;397.98;47.47;;;;;;;4.18;88.13;97357.69;4502461;31;34503;-92
2023/12/02 03:22:57;;;;;;;184.80;14.75;;;;;;;4.19;88.10;97360.25;4511869;31;33713;-92
2023/12/02 03:25:25;;;;;;;216.30;15.63;;;;;;;4.70;85.74;97356.37;4495474;31;33363;-87
2023/12/02 03:27:53;;;;;;;456.02;47.97;;;;;;;4.31;87.70;97365.47;4506543;31;33622;-92
2023/12/02 03:30:20;;;;;;;511.80;56.20;;;;;;;4.11;88.31;97362.75;4501388;31;33943;-91
2023/12/02 03:32:49;;;;;;;439.60;48.97;;;;;;;3.83;89.87;97371.03;4505561;31;33762;-92
2023/12/02 03:35:17;;;;;;;155.43;15.50;;;;;;;4.00;90.05;97373.75;4514232;31;33235;-92
2023/12/02 03:37:45;;;;;;;402.58;44.45;;;;;;;4.47;87.77;97357.91;4504204;31;34497;-89
2023/12/02 03:40:13;;;;;;;472.60;50.25;;;;;;;4.21;88.38;97345.75;4475018;31;34206;-88
2023/12/02 03:42:40;;;;;;;483.25;47.62;;;;;;;4.31;88.22;97352.66;4494001;31;33793;-91
2023/12/02 03:45:08;;;;;;;253.20;15.55;;;;;;;4.09;88.89;97337.91;4500785;31;33317;-90
2023/12/02 03:47:36;;;;;;;483.73;49.78;;;;;;;4.02;89.42;97346.44;4507557;31;33483;-90
2023/12/02 03:50:04;;;;;;;215.90;15.98;;;;;;;3.91;89.95;97338.63;4506459;31;34037;-88
2023/12/02 03:52:32;;;;;;;461.58;49.30;;;;;;;3.90;89.97;97327.53;4500009;31;33669;-89
2023/12/02 03:55:00;;;;;;;141.93;13.55;;;;;;;4.28;88.16;97315.84;4513921;31;33500;-90
2023/12/02 03:57:27;;;;;;;308.70;38.67;;;;;;;4.47;87.09;97324.53;4508087;31;33691;-92
2023/12/02 03:59:55;;;;;;;414.13;44.65;;;;;;;4.35;87.53;97315.91;4499477;31;33854;-89
2023/12/02 04:02:22;;;;;;;471.90;49.97;;;;;;;4.13;88.49;97329.44;4485100;31;33529;-92
2023/12/02 04:04:51;;;;;;;472.73;50.25;;;;;;;4.23;88.61;97331.22;4485236;31;34254;-88
2023/12/02 04:07:18;;;;;;;240.62;17.15;;;;;;;4.17;88.46;97331.19;4469394;31;32798;-88
2023/12/02 04:09:46;;;;;;;140.95;15.23;;;;;;;4.14;88.77;97334.56;4496016;31;34327;-88
2023/12/02 04:12:14;;;;;;;418.00;44.15;;;;;;;4.74;86.97;97334.16;4505070;31;33830;-89
2023/12/02 04:14:42;;;;;;;128.62;12.57;;;;;;;4.44;87.81;97329.69;4504648;31;33229;-90
2023/12/02 04:17:10;;;;;;;51.45;11.27;;;;;;;4.45;87.87;97332.25;4496716;31;33385;-89
2023/12/02 04:19:38;;;;;;;461.30;48.83;;;;;;;4.49;87.43;97343.38;4508895;31;33642;-89
2023/12/02 04:22:06;;;;;;;200.70;16.48;;;;;;;4.42;87.40;97342.47;4504211;31;32788;-88
2023/12/02 04:24:33;;;;;;;479.83;49.55;;;;;;;4.41;88.21;97340.75;4513666;31;33127;-92
2023/12/02 04:27:02;;;;;;;198.38;15.43;;;;;;;4.46;87.53;97333.09;4509962;31;34323;-92
2023/12/02 04:29:29;;;;;;;187.35;15.68;;;;;;;4.52;86.58;97338.28;4512383;31;33983;-87
2023/12/02 04:31:57;;;;;;;456.25;47.92;;;;;;;4.74;86.17;97340.16;4509272;31;34104;-89
2023/12/02 04:34:25;;;;;;;455.23;47.90;;;;;;;4.04;88.75;97332.75;4499644;31;33470;-87
2023/12/02 04:36:53;;;;;;;491.58;48.17;;;;;;;4.15;88.91;97336.28;4512179;31;33900;-91
2023/12/02 04:39:21;;;;;;;191.20;15.20;;;;;;;4.18;89.15;97335.44;4498536;31;34379;-91
2023/12/02 04:41:48;;;;;;;435.27;49.10;;;;;;;4.32;88.20;97333.00;4497195;31;33616;-89
2023/12/02 04:44:16;;;;;;;133.73;12.35;;;;;;;4.19;88.44;97337.16;4498429;31;33637;-88
2023/12/02 04:46:43;;;;;;;442.52;48.30;;;;;;;4.43;88.74;97335.63;4509008;31;33779;-87
2023/12/02 04:49:12;;;;;;;411.38;48.13;;;;;;;4.39;88.15;97322.81;4497477;31;34906;-90
2023/12/02 04:51:40;;;;;;;114.00;10.35;;;;;;;4.18;89.45;97317.50;4485716;31;34629;-88
2023/12/02 04:54:07;;;;;;;483.58;46.65;;;;;;;4.28;88.72;97319.28;4505376;31;33451;-89
2023/12/02 04:56:35;;;;;;;362.88;45.30;;;;;;;4.04;89.88;97314.81;4511794;31;33910;-88
2023/12/02 04:59:03;;;;;;;439.08;47.97;;;;;;;4.00;90.81;97325.03;4498428;31;33555;-93
2023/12/02 05:01:30;;;;;;;160.10;18.62;;;;;;;4.28;89.44;97313.28;4502161;31;33958;-90
2023/12/02 05:03:58;;;;;;;414.17;43.83;;;;;;;4.01;90.57;97304.53;4498829;31;34389;-93
2023/12/02 05:06:26;;;;;;;433.38;47.40;;;;;;;3.91;91.06;97297.63;4513333;31;33626;-89
2023/12/02 05:08:54;;;;;;;455.75;51.08;;;;;;;3.84;91.46;97299.25;4504677;31;34103;-88
2023/12/02 05:11:22;;;;;;;460.77;51.17;;;;;;;3.95;91.24;97295.94;4472796;31;32786;-92
2023/12/02 05:13:50;;;;;;;371.25;44.85;;;;;;;4.04;90.55;97289.16;4511435;31;33164;-91
2023/12/02 05:16:18;;;;;;;421.75;51.58;;;;;;;4.43;88.81;97292.88;4485276;31;32940;-92
2023/12/02 05:18:46;;;;;;;458.55;48.70;;;;;;;4.35;89.47;97285.13;4513846;31;34617;-91
2023/12/02 05:21:15;;;;;;;87.32;12.43;;;;;;;4.51;87.71;97282.66;4498797;31;33512;-90
2023/12/02 05:23:43;;;;;;;158.70;13.25;;;;;;;4.53;88.54;97293.81;4512584;31;33801;-91
2023/12/02 05:26:11;;;;;;;513.72;53.20;;;;;;;4.90;86.28;97300.00;4512438;31;34770;-90
2023/12/02 05:28:39;;;;;;;212.77;17.50;;;;;;;4.74;85.43;97296.50;4503418;31;33288;-91
2023/12/02 05:31:22;;;;;;;503.70;58.40;;;;;;;4.92;85.58;97280.31;4490552;31;33979;-91
2023/12/02 05:33:49;;;;;;;397.42;47.50;;;;;;;4.41;87.61;97283.47;4498554;31;33474;-91
2023/12/02 05:36:17;;;;;;;413.92;48.65;;;;;;;4.36;87.99;97286.00;4490030;31;33702;-91
2023/12/02 05:38:45;;;;;;;80.35;27.05;;;;;;;4.35;88.37;97297.94;4490040;31;33749;-89
2023/12/02 05:41:12;;;;;;;376.12;42.85;;;;;;;4.39;87.87;97286.88;4511034;31;33849;-90
2023/12/02 05:43:40;;;;;;;276.83;40.22;;;;;;;4.17;89.45;97299.50;4492003;31;33563;-91
2023/12/02 05:46:14;;;;;;;112.37;11.43;;;;;;;4.47;88.53;97299.78;4511715;31;33821;-87
2023/12/02 05:48:43;;;;;;;344.67;44.55;;;;;;;4.68;87.37;97296.47;4497362;31;34774;-92
2023/12/02 05:51:12;;;;;;;112.12;10.98;;;;;;;4.28;88.66;97301.34;4497722;31;34518;-89
2023/12/02 05:53:40;;;;;;;156.02;13.57;;;;;;;4.63;87.14;97299.00;4492809;31;32888;-90
2023/12/02 05:56:08;;;;;;;100.57;24.75;;;;;;;4.46;88.22;97299.75;4512423;31;33855;-88
2023/12/02 05:58:36;;;;;;;282.77;41.00;;;;;;;4.65;86.62;97291.31;4509121;31;34907;-91
2023/12/02 06:01:03;;;;;;;37.03;8.48;;;;;;;4.55;87.07;97276.72;4491851;31;33913;-89
2023/12/02 06:03:31;;;;;;;195.40;15.40;;;;;;;4.94;85.68;97282.91;4503618;31;33161;-87
2023/12/02 06:06:16;;;;;;;170.82;29.50;;;;;;;4.92;85.27;97266.63;4505430;31;34626;-91
2023/12/02 06:08:45;;;;;;;166.60;31.65;;;;;;;4.85;85.23;97269.19;4487444;31;34664;-91
2023/12/02 06:11:12;;;;;;;152.35;29.08;;;;;;;4.85;84.93;97281.16;4502027;31;33953;-92
2023/12/02 06:13:40;;;;;;;108.93;30.37;;;;;;;5.03;84.45;97288.06;4506362;31;34479;-86
2023/12/02 06:16:08;;;;;;;182.45;33.97;;;;;;;4.99;84.34;97299.19;4510542;31;33832;-88
2023/12/02 06:18:35;;;;;;;188.87;34.72;;;;;;;5.08;84.63;97309.53;4502935;31;34101;-86
2023/12/02 06:21:03;;;;;;;107.47;26.27;;;;;;;4.96;84.49;97304.31;4508695;31;34502;-87
2023/12/02 06:23:31;;;;;;;37.80;10.32;;;;;;;5.08;84.06;97305.25;4505267;31;34276;-88
2023/12/02 06:25:59;;;;;;;350.52;43.53;;;;;;;5.33;83.29;97311.31;4503593;31;33718;-86
2023/12/02 06:28:27;;;;;;;399.30;53.75;;;;;;;5.06;83.79;97319.78;4507792;31;34829;-87
2023/12/02 06:30:55;;;;;;;187.62;31.60;;;;;;;5.38;82.94;97329.34;4509733;31;34503;-88
2023/12/02 06:33:22;;;;;;;158.68;31.83;;;;;;;5.36;83.22;97319.03;4501048;31;33119;-92
2023/12/02 06:35:50;;;;;;;266.00;34.80;;;;;;;5.16;83.61;97332.69;4506862;31;33628;-90
2023/12/02 06:38:17;;;;;;;234.20;35.97;;;;;;;5.08;83.86;97328.34;4505517;31;34071;-91
2023/12/02 06:40:45;;;;;;;78.22;23.05;;;;;;;5.00;84.25;97340.31;4509393;31;34392;-91
2023/12/02 06:43:12;;;;;;;54.83;21.60;;;;;;;5.29;83.04;97349.84;4507715;31;34007;-92
2023/12/02 06:45:40;;;;;;;66.78;22.95;;;;;;;5.07;84.30;97348.87;4503167;31;33424;-89
2023/12/02 06:48:08;;;;;;;53.22;10.18;;;;;;;5.22;83.12;97332.69;4507699;31;35547;-91
2023/12/02 06:50:36;;;;;;;39.67;20.25;;;;;;;5.14;83.08;97317.25;4511436;31;34317;-89
2023/12/02 06:53:04;;;;;;;106.45;29.80;;;;;;;4.78;85.53;97326.47;4499919;31;33227;-91
2023/12/02 06:55:31;;;;;;;99.22;27.17;;;;;;;5.12;83.93;97326.66;4498545;31;34554;-87
2023/12/02 06:57:59;;;;;;;91.70;22.50;;;;;;;5.20;82.91;97339.53;4484240;31;33232;-90
2023/12/02 07:00:27;;;;;;;95.82;25.05;;;;;;;5.11;84.01;97320.66;4485144;31;33776;-87
2023/12/02 07:02:54;;;;;;;21.02;9.15;;;;;;;5.20;83.22;97322.41;4493502;31;34020;-89
2023/12/02 07:05:22;;;;;;;90.38;26.80;;;;;;;5.25;83.73;97332.69;4486228;31;33922;-93
2023/12/02 07:07:50;;;;;;;105.60;26.92;;;;;;;5.47;82.37;97339.66;4497566;31;34760;-93
2023/12/02 07:10:18;;;;;;;20.88;8.18;;;;;;;5.15;83.58;97339.50;4491475;31;32516;-89
2023/12/02 07:12:45;;;;;;;169.45;32.35;;;;;;;5.68;82.20;97325.97;4503387;31;33377;-93
2023/12/02 07:15:13;;;;;;;151.77;29.67;;;;;;;5.47;83.03;97341.34;4510236;31;33160;-92
2023/12/02 07:17:41;;;;;;;231.87;36.92;;;;;;;5.52;82.64;97347.38;4519023;31;34863;-88
2023/12/02 07:20:09;;;;;;;99.15;27.70;;;;;;;5.36;82.80;97329.31;4519582;31;33531;-88
2023/12/02 07:22:37;;;;;;;107.72;26.00;;;;;;;5.19;83.64;97327.53;4503037;31;33368;-92
2023/12/02 07:25:04;;;;;;;90.22;25.40;;;;;;;4.97;84.88;97331.72;4502770;31;34308;-88
2023/12/02 07:27:32;;;;;;;139.65;27.50;;;;;;;4.93;84.88;97333.41;4496442;31;33307;-87
2023/12/02 07:29:59;;;;;;;245.18;35.75;;;;;;;5.15;83.86;97328.38;4501633;31;32548;-91
2023/12/02 07:32:30;;;;;;;90.47;26.37;;;;;;;5.02;84.00;97318.03;4506774;31;33339;-90
2023/12/02 07:34:57;;;;;;;195.65;32.08;;;;;;;5.01;85.04;97313.75;4511286;31;34587;-90
2023/12/02 07:37:25;;;;;;;327.33;40.12;;;;;;;5.00;85.02;97317.19;4514949;31;33889;-91
2023/12/02 07:39:52;;;;;;;293.05;38.95;;;;;;;5.06;85.95;97324.06;4506246;31;33795;-88
2023/12/02 07:42:20;;;;;;;69.03;24.35;;;;;;;5.35;84.38;97316.47;4504705;31;33245;-91
2023/12/02 07:44:47;;;;;;;322.88;44.13;;;;;;;5.21;84.63;97315.56;4500555;31;33574;-90
2023/12/02 07:47:15;;;;;;;51.70;20.60;;;;;;;5.02;86.09;97304.34;4505298;31;33753;-89
2023/12/02 07:49:42;;;;;;;223.60;35.28;;;;;;;4.73;87.74;97312.75;4495785;31;33038;-91
2023/12/02 07:52:10;;;;;;;139.10;30.42;;;;;;;4.86;87.02;97300.84;4499236;31;33475;-88
2023/12/02 07:54:38;;;;;;;104.63;29.27;;;;;;;4.96;85.78;97315.44;4512428;31;33347;-88
2023/12/02 07:57:05;;;;;;;266.80;40.72;;;;;;;4.90;86.27;97304.28;4511625;31;34920;-90
2023/12/02 07:59:33;;;;;;;90.40;13.52;;;;;;;4.79;86.63;97294.81;4503397;31;34369;-90
2023/12/02 08:02:00;;;;;;;228.15;33.42;;;;;;;4.97;86.74;97311.19;4507045;31;33661;-86
2023/12/02 08:04:28;;;;;;;67.50;25.88;;;;;;;5.25;84.40;97302.72;4498606;31;33885;-89
2023/12/02 08:07:02;;;;;;;37.85;9.32;;;;;;;5.00;85.62;97318.87;4503420;31;34042;-88
2023/12/02 08:09:30;;;;;;;235.68;33.90;;;;;;;5.30;84.93;97305.31;4500249;31;33848;-91
2023/12/02 08:11:57;;;;;;;193.98;35.20;;;;;;;5.15;84.83;97313.81;4506386;31;33569;-88
2023/12/02 08:14:25;;;;;;;182.68;31.67;;;;;;;5.27;84.36;97313.88;4499933;31;33696;-87
2023/12/02 08:16:52;;;;;;;157.55;47.33;;;;;;;5.40;84.34;97329.34;4502273;31;34404;-90
2023/12/02 08:19:20;;;;;;;76.93;28.60;;;;;;;5.26;84.46;97321.56;4501521;31;33462;-90
2023/12/02 08:21:47;;;;;;;134.35;31.40;;;;;;;5.27;84.27;97329.28;4505661;31;33895;-90
2023/12/02 08:24:15;;;;;;;187.77;39.20;;;;;;;5.09;85.37;97340.34;4507053;31;34321;-86
2023/12/02 08:26:43;;;;;;;217.18;32.70;;;;;;;5.27;85.18;97339.56;4507674;31;33818;-88
2023/12/02 08:29:10;;;;;;;235.35;37.05;;;;;;;4.99;85.69;97341.13;4507305;31;33858;-86
2023/12/02 08:31:38;;;;;;;207.93;41.40;;;;;;;5.00;85.71;97347.13;4493002;31;32699;-87
2023/12/02 08:34:05;;;;;;;140.02;31.73;;;;;;;4.81;87.36;97375.28;4505259;31;33848;-89
2023/12/02 08:36:43;;;;;;;125.12;28.50;;;;;;;5.00;86.22;97389.09;4494660;31;33802;-88
2023/12/02 08:39:10;;;;;;;152.48;31.42;;;;;;;5.22;85.09;97376.34;4481304;31;33475;-88
2023/12/02 08:41:37;;;;;;;115.78;29.33;;;;;;;5.50;83.94;97367.06;4507106;31;34750;-89
2023/12/02 08:44:05;;;;;;;79.72;27.95;;;;;;;5.15;85.21;97364.31;4498366;31;33752;-87
2023/12/02 08:46:32;;;;;;;88.78;28.85;;;;;;;5.42;84.33;97359.34;4498403;31;34577;-88
2023/12/02 08:49:00;;;;;;;151.00;30.80;;;;;;;5.40;84.55;97357.59;4511461;31;33797;-88
2023/12/02 08:51:28;;;;;;;128.25;29.23;;;;;;;5.55;84.35;97361.09;4506130;31;33667;-87
2023/12/02 08:53:59;;;;;;;199.40;33.95;;;;;;;5.30;85.16;97367.84;4503110;31;34524;-87
2023/12/02 08:56:27;;;;;;;105.45;30.40;;;;;;;5.21;85.24;97362.66;4508291;31;34058;-89
2023/12/02 08:58:55;;;;;;;79.85;29.35;;;;;;;5.34;84.79;97358.41;4493573;31;34530;-87
2023/12/02 09:01:23;;;;;;;126.50;34.92;;;;;;;5.34;84.99;97349.03;4512149;31;33014;-89
2023/12/02 09:03:50;;;;;;;43.70;11.88;;;;;;;5.67;83.30;97361.97;4513555;31;33603;-91
2023/12/02 09:06:18;;;;;;;152.40;41.13;;;;;;;6.07;82.47;97345.81;4501093;31;33846;-90
2023/12/02 09:08:47;;;;;;;177.75;37.17;;;;;;;5.75;83.50;97345.72;4499906;31;32903;-87
2023/12/02 09:11:14;;;;;;;160.30;37.42;;;;;;;5.50;83.84;97355.09;4475088;31;32966;-91
2023/12/02 09:13:46;;;;;;;279.85;42.42;;;;;;;5.62;83.50;97346.56;4484292;31;33257;-90
2023/12/02 09:16:22;;;;;;;107.63;31.92;;;;;;;5.44;84.90;97346.47;4507354;31;35084;-88
2023/12/02 09:18:50;;;;;;;308.95;42.92;;;;;;;5.68;84.10;97353.41;4502281;31;33915;-87
2023/12/02 09:21:21;;;;;;;94.68;31.87;;;;;;;5.49;84.43;97343.09;4503217;31;33019;-91
2023/12/02 09:23:49;;;;;;;58.03;28.05;;;;;;;5.52;84.45;97350.78;4511403;31;33472;-87
2023/12/02 09:26:41;;;;;;;249.95;42.85;;;;;;;5.59;83.79;97339.69;4490231;31;34018;-89
2023/12/02 09:29:11;;;;;;;223.77;38.80;;;;;;;5.92;83.29;97343.22;4498050;31;34008;-90
2023/12/02 09:31:38;;;;;;;125.32;33.45;;;;;;;5.76;83.86;97350.03;4510226;31;33650;-89
2023/12/02 09:34:41;;;;;;;246.52;42.47;;;;;;;5.91;83.37;97346.63;4512911;31;34315;-89
2023/12/02 09:37:45;;;;;;;198.48;38.25;;;;;;;6.13;82.27;97331.25;4514518;31;34953;-87
2023/12/02 09:40:23;;;;;;;164.00;40.45;;;;;;;6.33;81.47;97343.28;4485624;31;33034;-89
2023/12/02 09:43:28;;;;;;;272.40;44.33;;;;;;;6.21;81.27;97345.84;4499863;31;33263;-92
2023/12/02 09:46:11;;;;;;;234.43;39.90;;;;;;;5.91;82.80;97345.75;4505088;31;33797;-91
2023/12/02 09:49:10;;;;;;;48.58;12.02;;;;;;;6.12;81.70;97350.13;4513834;31;34123;-88
2023/12/02 09:52:15;;;;;;;155.35;37.20;;;;;;;6.22;81.94;97329.53;4505629;31;33418;-89
2023/12/02 09:54:45;;;;;;;236.32;40.17;;;;;;;6.26;81.33;97336.41;4510786;31;33203;-86
2023/12/02 09:57:19;;;;;;;80.47;31.23;;;;;;;5.71;83.16;97312.28;4501711;31;33505;-87
2023/12/02 10:00:12;;;;;;;127.07;36.90;;;;;;;5.94;82.52;97314.94;4495379;31;33744;-87
2023/12/02 10:02:46;;;;;;;62.10;31.62;;;;;;;6.13;82.65;97302.94;4503452;31;33728;-89
2023/12/02 10:05:14;;;;;;;80.47;32.38;;;;;;;6.04;82.57;97301.22;4493546;31;33352;-87
2023/12/02 10:08:03;;;;;;;130.50;37.50;;;;;;;6.12;82.70;97309.81;4500503;31;33469;-86
2023/12/02 10:10:42;;;;;;;64.62;34.20;;;;;;;6.36;82.14;97295.22;4489366;31;34547;-87
2023/12/02 10:13:19;;;;;;;128.38;38.22;;;;;;;6.11;82.81;97302.09;4515298;31;33881;-88
2023/12/02 10:15:51;;;;;;;95.32;40.38;;;;;;;6.84;80.14;97296.84;4495561;31;34343;-87
2023/12/02 10:18:22;;;;;;;95.28;50.85;;;;;;;6.79;80.08;97288.31;4485920;31;34258;-87
2023/12/02 10:20:55;;;;;;;104.32;42.22;;;;;;;6.66;79.97;97292.59;4499494;31;34783;-87
2023/12/02 10:23:47;;;;;;;69.25;40.42;;;;;;;6.51;80.97;97292.63;4485157;31;34768;-89
2023/12/02 10:26:18;;;;;;;101.22;42.65;;;;;;;6.32;82.61;97300.34;4483928;31;33613;-90
2023/12/02 10:29:09;;;;;;;167.73;39.45;;;;;;;6.28;82.28;97295.22;4499197;31;33529;-87
2023/12/02 10:31:43;;;;;;;240.45;51.33;;;;;;;6.34;82.64;97300.38;4497527;31;34352;-85
2023/12/02 10:34:28;;;;;;;101.60;45.70;;;;;;;6.22;81.69;97265.22;4492874;31;33498;-90
2023/12/02 10:37:00;;;;;;;74.07;32.03;;;;;;;6.17;83.27;97291.78;4502193;31;32440;-96
2023/12/02 10:39:32;;;;;;;183.02;46.55;;;;;;;6.27;82.87;97298.66;4505837;31;33439;-96
2023/12/02 10:42:03;;;;;;;97.40;31.27;;;;;;;6.16;82.92;97285.78;4506502;31;33275;-88
2023/12/02 10:44:41;;;;;;;183.05;31.15;;;;;;;5.87;84.70;97316.59;4505089;31;33035;-96
2023/12/02 10:47:09;;;;;;;102.12;28.02;;;;;;;6.00;84.35;97222.34;4502587;31;33179;-89
2023/12/02 10:49:37;;;;;;;159.57;37.05;;;;;;;5.73;85.25;97290.03;4490516;31;32911;-93
2023/12/02 10:52:06;;;;;;;70.95;28.08;;;;;;;5.86;85.59;97233.44;4489959;31;33727;-87
2023/12/02 10:54:58;;;;;;;140.40;33.13;;;;;;;5.66;86.64;97257.44;4463316;32;33433;-86
2023/12/02 10:57:26;;;;;;;138.18;30.37;;;;;;;5.59;86.26;97261.72;4464968;32;33376;-87
2023/12/02 11:00:01;;;;;;;233.65;39.80;;;;;;;5.84;84.91;97244.59;4465465;32;34354;-94
2023/12/02 11:02:31;;;;;;;153.65;30.88;;;;;;;6.14;84.42;97238.62;4452052;32;34969;-96
2023/12/02 11:05:11;;;;;;;119.53;29.50;;;;;;;6.49;82.32;97224.84;4450208;32;33420;-91
2023/12/02 11:08:04;;;;;;;78.53;28.27;;;;;;;6.26;83.07;97225.75;4446392;32;32960;-88
2023/12/02 11:10:35;;;;;;;242.45;32.97;;;;;;;6.13;83.82;97223.19;4449594;32;33878;-90
2023/12/02 11:13:05;;;;;;;119.53;27.48;;;;;;;6.37;82.01;97201.72;4443658;32;33685;-89
2023/12/02 11:15:51;;;;;;;216.40;34.92;;;;;;;5.92;84.00;97206.03;4469625;31;34837;-89
2023/12/02 11:18:58;;;;;;;227.05;45.28;;;;;;;6.45;81.99;97192.25;4497994;31;33090;-89
2023/12/02 11:21:58;;;;;;;195.90;115.25;;;;;;;6.25;83.26;97205.16;4489072;31;33920;-89
2023/12/02 11:24:40;;;;;;;82.68;34.67;;;;;;;6.25;82.75;97185.44;4473439;31;32989;-93
2023/12/02 11:27:33;;;;;;;82.55;26.65;;;;;;;6.09;83.30;97196.59;4484754;31;33236;-92
2023/12/02 11:30:23;;;;;;;244.02;59.10;;;;;;;5.90;84.46;97200.88;4484975;31;34028;-91
2023/12/02 11:33:05;;;;;;;114.50;49.28;;;;;;;6.17;83.32;97206.88;4497698;31;33709;-92